ADDS METAR Data INFO
IDs: Format: Raw Decoded Include TAF

Data at: 0950 UTC 25 Jun 2018

KLIC 250855Z AUTO 32007KT 10SM CLR 09/08 A3013 RMK AO2 SLP169 T00890083 50004 $
KLIC 250755Z AUTO 29009KT 10SM CLR 10/09 A3014 RMK AO2 SLP155 T01000089 $
KLIC 250655Z AUTO 32011KT 10SM CLR 10/09 A3013 RMK AO2 SLP150 T01000089 402060089 $
KLIC 250555Z AUTO 01007KT 10SM CLR 09/09 A3012 RMK AO2 SLP151 T00940089 10139 20094 58005 $
KLIC 250455Z AUTO 33010KT 10SM CLR 11/09 A3011 RMK AO2 SLP152 T01110094 $
KLIC 250355Z AUTO 35008KT 10SM CLR 11/11 A3015 RMK AO2 SLP166 T01110106 $
KLIC 250255Z AUTO 01012KT 10SM CLR 11/11 A3013 RMK AO2 SLP163 T01110106 51017 $
KLIC 250155Z AUTO 34008KT 10SM CLR 13/11 A3013 RMK AO2 SLP156 T01280111 $
KLIC 250055Z AUTO 33009KT 10SM CLR 13/10 A3013 RMK AO2 SLP156 T01330100 $
KLIC 242355Z AUTO 35007KT 10SM SCT110 12/10 A3008 RMK AO2 RAE20 TSE04 SLP143 P0001 60020 T01170100 10206 20100 58001 $
KLIC 242326Z AUTO 36012KT 10SM BKN075 OVC100 11/09 A3006 RMK AO2 LTG DSNT NE-S RAE20 TSE04 P0001 T01110094 $
KLIC 242310Z AUTO 01012G18KT 10SM VCTS -RA OVC075 11/10 A3007 RMK AO2 LTG DSNT E-S TSE04 P0001 T01060100 $
KLIC 242255Z AUTO 36015KT 10SM -TSRA OVC070 11/10 A3008 RMK AO2 PK WND 36026/2208 LTG DSNT E-SW RAE20B36 TSB46 SLP147 P0000 T01060100 $
KLIC 242252Z AUTO 01014G22KT 10SM -TSRA OVC075 10/09 A3008 RMK AO2 PK WND 36026/2208 LTG DSNT E-SW RAE20B36 TSB46 P0000 $
KLIC 242230Z AUTO 01018KT 10SM FEW050 BKN080 OVC110 10/09 A3010 RMK AO2 PK WND 36026/2208 LTG DSNT E-SW RAE20 P0000 T01000094 $
KLIC 242155Z AUTO 36019G29KT 10SM VCTS -RA FEW045 BKN060 10/09 A3008 RMK AO2 PK WND 36031/2122 LTG DSNT ALQDS TSE26 SLP147 P0012 T01000094 $
KLIC 242132Z AUTO 34021G27KT 7SM VCTS -RA 11/09 A3008 RMK AO2 PK WND 36031/2122 LTG DSNT NE-S TSE26 P0012 T01060094 $
KLIC 242055Z AUTO 31011G43KT 4SM TSRA FEW029 BKN047 OVC075 12/09 A3006 RMK AO2 PK WND 34043/2047 WSHFT 2038 LTG DSNT ALQDS RAB33 TSB36 PRESRR SLP135 P0007 60007 T01170089 55000
KLIC 242042Z AUTO 33026G38KT 9SM -TSRA BKN036 BKN047 OVC055 16/13 A3005 RMK AO2 PK WND 32038/2042 LTG DSNT ALQDS RAB33 TSB36 PRESRR P0000 T01610128
KLIC 242017Z AUTO 10006KT 10SM VCTS FEW035 BKN045 OVC055 18/12 A3002 RMK AO2 LTG DSNT SW-NW T01830117
KLIC 241955Z AUTO 11008KT 10SM FEW033 BKN046 OVC055 18/12 A3001 RMK AO2 LTG DSNT SW AND W SLP102 T01830117
KLIC 241855Z AUTO 15011KT 10SM SCT032 SCT039 BKN060 20/12 A3003 RMK AO2 SLP101 T02000117
KLIC 241755Z AUTO 10SM FEW026 OVC049 18/12 A3006 RMK AO2 SLP119 T01830117 10183 20128 50001
KLIC 241705Z AUTO 19004KT 10SM SCT015 SCT022 OVC036 16/13 A3007 RMK AO2 T01610128
KLIC 241655Z AUTO 22006KT 10SM SCT015 BKN020 OVC033 16/13 A3007 RMK AO2 SLP128 T01560128
KLIC 241644Z AUTO 19008KT 10SM BKN015 OVC022 16/13 A3007 RMK AO2 T01560128
KLIC 241555Z AUTO 15005KT 10SM OVC013 14/13 A3006 RMK AO2 SLP129 T01390128
KLIC 241529Z AUTO 09003KT 10SM SCT007 OVC011 14/13 A3006 RMK AO2 T01390128
KLIC 241455Z AUTO 11008KT 10SM OVC008 13/12 A3006 RMK AO2 CIG 006V012 SLP125 T01330122 51014
KLIC 241423Z AUTO 09009KT 10SM OVC010 14/12 A3004 RMK AO2 CIG 007V013 T01390122
KLIC 241355Z AUTO 11009KT 10SM OVC009 13/12 A3004 RMK AO2 SLP114 T01330122
KLIC 241347Z AUTO 08007KT 10SM BKN009 OVC013 13/12 A3004 RMK AO2 T01330122
KLIC 241309Z AUTO 02008KT 10SM OVC014 13/12 A3003 RMK AO2 T01280117
KLIC 241255Z AUTO 03009KT 10SM OVC015 13/12 A3003 RMK AO2 SLP101 T01280117
KLIC 241213Z AUTO 03011KT 10SM OVC016 13/12 A3001 RMK AO2 T01280117
KLIC 241155Z AUTO 02012G21KT 10SM OVC014 13/12 A3001 RMK AO2 PK WND 03026/1131 SLP096 60002 70013 T01280117 10178 20122 53004
KLIC 241144Z AUTO 02015KT 10SM SCT009 OVC014 13/12 A3001 RMK AO2 PK WND 03026/1131 T01280117
KLIC 241131Z AUTO 02019G26KT 10SM BKN009 OVC013 12/12 A3001 RMK AO2 PK WND 03026/1131 T01220117
KLIC 241055Z AUTO 01014G23KT 9SM BKN010 OVC014 13/12 A3001 RMK AO2 PK WND 01027/1008 CIG 007V013 SLP101 T01280122
KLIC 240955Z AUTO 36013KT 10SM BKN006 OVC010 13/13 A2999 RMK AO2 CIG 004V009 SLP091 T01330133
KLIC 240952Z AUTO 36016KT 10SM BKN006 OVC010 13/13 A2999 RMK AO2 CIG 004V009
KLIC 240909Z AUTO 35012KT 10SM OVC013 14/13 A2999 RMK AO2 T01390133
KLIC 240855Z AUTO 34010KT 10SM BKN015 BKN033 OVC042 14/13 A2998 RMK AO2 LTG DSNT E TSE0758 SLP095 60002 T01390128 53021
KLIC 240836Z AUTO 34007KT 10SM BKN031 OVC040 14/12 A2998 RMK AO2 LTG DSNT NE AND E TSE0758 T01440122
KLIC 240820Z AUTO 33006KT 10SM FEW023 OVC029 14/12 A2998 RMK AO2 LTG DSNT NE AND E TSE0758 T01440122
KLIC 240804Z AUTO 33011KT 10SM VCTS SCT019 BKN024 OVC030 14/12 A2996 RMK AO2 LTG DSNT NE-SE TSE0758 T01440122
KLIC 240755Z AUTO 34008G23KT 10SM TS OVC021 14/12 A2995 RMK AO2 WSHFT 0711 LTG DSNT NE-SE RAB32E48 TSB25 SLP069 P0002 T01440122
KLIC 240731Z AUTO 28008G19KT 10SM TS OVC019 17/14 A2994 RMK AO2 WSHFT 0711 LTG DSNT N AND NE TSB25 T01670139
KLIC 240710Z AUTO 18014G20KT 10SM VCTS OVC020 17/15 A2991 RMK AO2 LTG DSNT N AND NE PRESFR T01720150
KLIC 240655Z AUTO 17010KT 10SM OVC019 18/15 A2994 RMK AO2 LTG DSNT N SLP058 T01780150 402720078
KLIC 240555Z AUTO 16005KT 10SM OVC022 14/14 A2991 RMK AO2 SLP053 T01440139 10250 20133 51007
KLIC 240545Z AUTO 00000KT 10SM BKN022 14/14 A2991 RMK AO2 T01440139
KLIC 240455Z AUTO 00000KT 10SM CLR 14/13 A2990 RMK AO2 SLP053 T01440133
KLIC 240355Z AUTO 00000KT 10SM CLR 15/13 A2990 RMK AO2 SLP055 T01500133
KLIC 240255Z AUTO 14005KT 10SM CLR 16/13 A2989 RMK AO2 SLP050 T01610133 53013
KLIC 240155Z AUTO 13015KT 10SM CLR 19/14 A2988 RMK AO2 SLP051 T01890139
KLIC 240055Z AUTO 15005KT 10SM CLR 24/09 A2984 RMK AO2 SLP033 T02440089
KLIC 232355Z AUTO 14013KT 10SM BKN110 24/11 A2984 RMK AO2 LTG DSNT SE AND S SLP042 60011 T02390106 10272 20167 58010
KLIC 232255Z AUTO 17008KT 10SM BKN090 OVC100 21/13 A2989 RMK AO2 LTG DSNT SE-SW SLP068 T02060128
KLIC 232155Z AUTO 11008KT 10SM FEW035 SCT085 BKN110 22/11 A2988 RMK AO2 LTG DSNT SE-W RAE16B27E42 TSE19B33E48 SLP060 P0001 T02170111